createdAt,value
2022-10-07T00:01:49.599Z,1.10
2022-10-07T00:11:51.843Z,0.73
2022-10-07T00:21:53.980Z,1.58
2022-10-07T00:31:57.369Z,0.60
2022-10-07T00:41:59.682Z,0.77
2022-10-07T00:52:01.799Z,0.73
2022-10-07T01:02:04.559Z,0.73
2022-10-07T01:12:22.124Z,0.70
2022-10-07T01:22:37.230Z,0.87
2022-10-07T01:32:48.771Z,1.08
2022-10-07T01:42:52.138Z,0.70
2022-10-07T01:53:12.637Z,0.90
2022-10-07T02:03:18.002Z,1.17
2022-10-07T02:13:58.628Z,1.20
2022-10-07T02:24:02.079Z,0.88
2022-10-07T02:34:06.413Z,1.20
2022-10-07T02:44:25.895Z,0.90
2022-10-07T02:54:36.743Z,0.93
2022-10-07T03:04:39.268Z,0.90
2022-10-07T03:14:41.675Z,0.90
2022-10-07T03:24:43.755Z,0.65
2022-10-07T03:34:45.848Z,1.08
2022-10-07T03:44:50.121Z,1.00
2022-10-07T03:54:56.639Z,1.15
2022-10-07T04:04:58.773Z,1.15
2022-10-07T04:15:02.083Z,1.45
2022-10-07T04:25:35.053Z,1.20
2022-10-07T04:35:39.002Z,1.50
2022-10-07T04:45:41.203Z,1.20
2022-10-07T04:55:46.240Z,3.22
2022-10-07T05:05:50.923Z,1.48
2022-10-07T05:15:54.190Z,1.90
2022-10-07T05:26:02.099Z,2.50
2022-10-07T05:36:05.904Z,2.63
2022-10-07T05:46:14.014Z,3.00
2022-10-07T06:06:20.138Z,5.65
2022-10-07T06:16:23.521Z,6.28
2022-10-07T06:26:26.303Z,6.93
2022-10-07T06:36:28.561Z,7.80
2022-10-07T06:46:31.384Z,13.43
2022-10-07T06:56:33.971Z,12.88
2022-10-07T07:06:37.522Z,11.00
2022-10-07T07:16:40.353Z,11.70
2022-10-07T07:26:42.566Z,11.02
2022-10-07T07:36:48.248Z,11.95
2022-10-07T07:46:52.388Z,14.70
2022-10-07T07:56:55.736Z,13.05
2022-10-07T08:06:57.974Z,11.35
2022-10-07T08:17:00.390Z,10.05
2022-10-07T08:27:02.558Z,8.05
2022-10-07T08:37:04.694Z,28.17
2022-10-07T08:47:16.362Z,8.82
2022-10-07T08:57:44.832Z,7.22
2022-10-07T09:07:51.669Z,7.50
2022-10-07T09:18:06.139Z,7.22
2022-10-07T09:28:15.110Z,5.40
2022-10-07T09:38:29.808Z,5.28
2022-10-07T09:48:34.889Z,4.70
2022-10-07T09:58:37.047Z,2.40
2022-10-07T10:08:43.387Z,4.10
2022-10-07T10:18:55.835Z,1.92
2022-10-07T10:29:12.937Z,2.35
2022-10-07T10:39:21.095Z,1.92
2022-10-07T10:59:49.924Z,2.53
2022-10-07T11:10:00.823Z,2.65
2022-10-07T11:20:14.392Z,2.33
2022-10-07T11:30:20.622Z,3.00
2022-10-07T11:40:29.049Z,2.90
2022-10-07T11:50:37.279Z,3.17
2022-10-07T12:00:40.551Z,2.30
2022-10-07T12:10:42.815Z,2.72
2022-10-07T12:20:50.724Z,2.63
2022-10-07T12:41:32.896Z,3.08
2022-10-07T12:51:39.644Z,2.30
2022-10-07T13:02:08.708Z,2.40
2022-10-07T13:12:36.163Z,3.08
2022-10-07T13:22:44.979Z,6.27
2022-10-07T13:32:47.672Z,3.03
2022-10-07T13:42:59.801Z,2.42
2022-10-07T13:53:01.913Z,2.20
2022-10-07T14:03:16.619Z,3.83
2022-10-07T14:13:18.934Z,3.15
2022-10-07T14:23:31.463Z,10.55
2022-10-07T14:34:08.073Z,4.35
2022-10-07T14:44:10.223Z,3.50
2022-10-07T14:54:12.738Z,15.70
2022-10-07T15:04:15.020Z,9.85
2022-10-07T15:14:17.318Z,6.85
2022-10-07T15:24:19.878Z,4.43
2022-10-07T15:34:21.967Z,10.27
2022-10-07T15:44:24.058Z,4.85
2022-10-07T15:54:26.219Z,3.40
2022-10-07T16:04:28.538Z,18.48
2022-10-07T16:14:31.711Z,30.27
2022-10-07T16:24:35.514Z,12.65
2022-10-07T16:34:40.704Z,15.00
2022-10-07T16:44:46.243Z,15.60
2022-10-07T16:54:50.617Z,28.43
2022-10-07T17:04:52.713Z,9.38
2022-10-07T17:14:55.291Z,6.35
2022-10-07T17:24:57.383Z,5.60
2022-10-07T17:34:59.549Z,9.70
2022-10-07T17:45:03.213Z,5.45
2022-10-07T17:55:06.260Z,6.82
2022-10-07T18:05:08.743Z,14.00
2022-10-07T18:15:20.119Z,12.10
2022-10-07T18:25:22.894Z,12.20
2022-10-07T18:35:25.103Z,8.10
2022-10-07T18:45:27.233Z,17.13
2022-10-07T18:55:29.589Z,8.77
2022-10-07T19:05:36.412Z,6.88
2022-10-07T19:15:38.619Z,5.90
2022-10-07T19:25:47.932Z,7.72
2022-10-07T19:35:56.412Z,6.57
2022-10-07T19:46:01.585Z,6.85
2022-10-07T19:56:10.480Z,5.93
2022-10-07T20:06:13.151Z,6.43
2022-10-07T20:16:19.201Z,7.80
2022-10-07T20:26:26.768Z,6.05
2022-10-07T20:40:30.283Z,6.47
2022-10-07T20:50:33.479Z,6.30
2022-10-07T21:00:35.608Z,7.93
2022-10-07T21:10:38.369Z,10.20
2022-10-07T21:20:56.788Z,13.85
2022-10-07T21:31:03.306Z,11.70
2022-10-07T21:41:19.719Z,13.05
2022-10-07T21:51:22.712Z,9.70
2022-10-07T22:10:10.141Z,6.20
2022-10-07T22:20:12.237Z,12.70
2022-10-07T22:30:14.502Z,11.90
2022-10-07T22:40:16.871Z,9.57
2022-10-07T22:50:19.093Z,7.28
2022-10-07T23:00:22.377Z,10.18
2022-10-07T23:10:24.528Z,8.57
2022-10-07T23:20:27.739Z,8.55
2022-10-07T23:30:30.281Z,8.35
2022-10-07T23:40:32.379Z,8.07
2022-10-07T23:50:34.964Z,8.57
